Brilliance Of The Seas — C6SJ5 — position and weather

sailwx.info

Track history (hours):
 
Tides and Currents Weather Stations Pressure Air Temp Water Temp Dewpoint Dewpoint Depression Visibility Wind Speed Wind Dir Waves Ship Positions

Brilliance Of The Seas

Operator: Royal Caribbean Cruises Ltd

Last reported at 2016-Jun-25 23:23 UTC. Time now 2016-Jun-26 15:32 UTC.
Position N 37°52' E 025°37'.

Type: Ship. MMSI: 311361000.

Date/timePositionNaut miles runAvg speedWind from/ knotsBaromVisibWave heightAir tempDewpointWater temp
2016-Jun-25 23:23N 37°52' E 025°37'1514.1
2016-Jun-25 22:19N 37°53' E 025°18'3613.0
2016-Jun-25 19:33N 37°53' E 024°33'1616.3
2016-Jun-25 18:33N 37°44' E 024°16'1514.4
2016-Jun-25 17:30N 37°35' E 023°60'1616.4
2016-Jun-25 16:33N 37°41' E 023°41'1615.5
2016-Jun-25 15:33N 37°56' E 023°37'0 0.4
2016-Jun-25 14:32N 37°56' E 023°37'0 0.0
2016-Jun-25 13:32N 37°56' E 023°37'0 0.0
2016-Jun-25 12:32N 37°56' E 023°37'0 0.0
2016-Jun-25 11:32N 37°56' E 023°37'0 0.0
2016-Jun-25 10:32N 37°56' E 023°37'0 0.0
2016-Jun-25 09:32N 37°56' E 023°37'0 0.0
2016-Jun-25 08:32N 37°56' E 023°37'0 0.0
2016-Jun-25 07:32N 37°56' E 023°37'0 0.0
2016-Jun-25 06:31N 37°56' E 023°37'0 0.0
2016-Jun-25 05:31N 37°56' E 023°37'0 0.0
2016-Jun-25 04:31N 37°56' E 023°37'0 0.0
2016-Jun-25 03:32N 37°56' E 023°37'0 0.0
2016-Jun-25 02:32N 37°56' E 023°37'2 1.6
2016-Jun-25 01:33N 37°55' E 023°37'1312.6
2016-Jun-25 00:34N 37°43' E 023°44'1414.3
2016-Jun-24 23:34N 37°29' E 023°45'1414.4
2016-Jun-24 22:33N 37°15' E 023°43'37612.8
2016-Jun-23 17:06N 37°48' E 015°50'814.2
2016-Jun-23 16:34N 37°50' E 015°41'1312.8
2016-Jun-23 15:34N 38°02' E 015°34'1514.9
2016-Jun-23 14:33N 38°16' E 015°40'1716.6
2016-Jun-23 13:32N 38°32' E 015°33'1515.1
2016-Jun-23 12:33N 38°45' E 015°25'3014.6
2016-Jun-23 10:30N 39°10' E 015°03'259 7.8
2016-Jun-22 01:11N 41°56' E 010°42'5418.5
2016-Jun-21 22:14N 42°33' E 009°47'1622.7
2016-Jun-21 21:33N 42°48' E 009°42'2422.5
2016-Jun-21 20:30N 43°11' E 009°35'2122.6
2016-Jun-21 19:33N 43°32' E 009°33'2121.0
2016-Jun-21 18:34N 43°52' E 009°41'1514.5
2016-Jun-21 17:33N 44°05' E 009°51'2 1.7
2016-Jun-21 16:32N 44°07' E 009°50'0 0.0
2016-Jun-21 15:29N 44°07' E 009°50'0 0.0
2016-Jun-21 14:32N 44°07' E 009°50'0 0.0
2016-Jun-21 13:26N 44°07' E 009°50'0 0.0
2016-Jun-21 12:32N 44°07' E 009°50'0 0.0
2016-Jun-21 11:32N 44°07' E 009°50'0 0.0
2016-Jun-21 10:32N 44°07' E 009°50'0 0.0
2016-Jun-21 09:32N 44°07' E 009°50'0 0.0
2016-Jun-21 08:32N 44°07' E 009°50'0 0.0
2016-Jun-21 07:29N 44°07' E 009°50'0 0.0
2016-Jun-21 04:33N 44°07' E 009°50'8 7.7
2016-Jun-21 03:34N 44°00' E 009°56'1110.8
2016-Jun-21 02:33N 43°57' E 009°42'1211.9
2016-Jun-21 01:33N 43°55' E 009°25'1211.8
2016-Jun-21 00:33N 43°53' E 009°09'1212.1
2016-Jun-20 23:33N 43°50' E 008°53'1212.1
2016-Jun-20 22:33N 43°46' E 008°38'1212.0
2016-Jun-20 21:33N 43°41' E 008°22'1212.3
2016-Jun-20 20:33N 43°37' E 008°06'1212.1
2016-Jun-20 19:33N 43°33' E 007°50'1211.9
2016-Jun-20 18:34N 43°30' E 007°35'1211.7
2016-Jun-20 17:33N 43°29' E 007°19'1211.8
2016-Jun-20 16:33N 43°28' E 007°02'4 3.8
2016-Jun-20 15:33N 43°32' E 007°01'0 0.0
2016-Jun-20 14:33N 43°32' E 007°01'0 0.0
2016-Jun-20 13:33N 43°32' E 007°01'0 0.0
2016-Jun-20 12:33N 43°32' E 007°01'0 0.0
2016-Jun-20 11:33N 43°32' E 007°01'0 0.0
2016-Jun-20 10:33N 43°32' E 007°01'0 0.1
2016-Jun-20 09:33N 43°32' E 007°01'0 0.0
2016-Jun-20 08:33N 43°32' E 007°01'0 0.0
2016-Jun-20 07:33N 43°32' E 007°01'0 0.0
2016-Jun-20 06:33N 43°32' E 007°01'8 7.7
2016-Jun-20 05:29N 43°24' E 006°58'17617.1
2016-Jun-19 19:11N 41°45' E 003°40'1421.7
2016-Jun-19 18:33N 41°39' E 003°24'2221.6
2016-Jun-19 17:31N 41°29' E 002°57'2122.2
2016-Jun-19 16:33N 41°22' E 002°30'1515.1
2016-Jun-19 15:33N 41°18' E 002°10'3 2.9
2016-Jun-19 14:26N 41°21' E 002°10'0 0.0
2016-Jun-19 13:26N 41°21' E 002°10'0 0.0
2016-Jun-19 12:29N 41°21' E 002°10'0 0.0
2016-Jun-19 11:32N 41°21' E 002°10'0 0.0
2016-Jun-19 10:11N 41°21' E 002°10'0 0.0
2016-Jun-19 08:32N 41°21' E 002°10'0 0.0
2016-Jun-19 07:32N 41°21' E 002°10'0 0.0
2016-Jun-19 02:18N 41°21' E 002°10'2 2.7
2016-Jun-19 01:34N 41°19' E 002°10'1817.7
2016-Jun-19 00:33N 41°08' E 002°29'2222.3
2016-Jun-18 23:33N 40°57' E 002°55'2322.6
2016-Jun-18 22:33N 40°46' E 003°21'2922.7
2016-Jun-18 21:18N 40°32' E 003°53'24517.5
2016-Jun-18 07:20N 38°36' E 008°33'3117.5
2016-Jun-18 05:33N 38°35' E 009°13'10917.6
2016-Jun-17 23:21N 38°30' E 011°32'5918.1
2016-Jun-17 20:04N 38°27' E 012°48'1223.0
2016-Jun-17 19:33N 38°27' E 013°03'2323.0
2016-Jun-17 18:34N 38°29' E 013°32'3322.9
2016-Jun-17 17:06N 38°20' E 014°13'3622.8
2016-Jun-17 15:31N 38°20' E 014°59'2222.3
2016-Jun-17 14:33N 38°21' E 015°27'1110.9
2016-Jun-17 13:34N 38°14' E 015°38'1616.3
2016-Jun-17 12:33N 37°58' E 015°37'27818.3
2016-Jun-16 21:22N 42°00' E 018°33'1417.0
2016-Jun-16 20:34N 42°14' E 018°33'1211.9
2016-Jun-16 19:34N 42°26' E 018°35'6 6.3
2016-Jun-16 18:34N 42°29' E 018°43'3 3.2
2016-Jun-16 17:29N 42°26' E 018°46'0 0.0
2016-Jun-16 16:32N 42°26' E 018°46'0 0.0
2016-Jun-16 15:32N 42°26' E 018°46'0 0.0
2016-Jun-16 14:32N 42°26' E 018°46'0 0.0
2016-Jun-16 13:32N 42°26' E 018°46'0 0.0
2016-Jun-16 12:32N 42°26' E 018°46'0 0.0
2016-Jun-16 11:32N 42°26' E 018°46'0 0.0
2016-Jun-16 10:32N 42°26' E 018°46'4 4.4
2016-Jun-16 09:34N 42°29' E 018°41'6 6.0
2016-Jun-16 08:33N 42°26' E 018°34'1312.5
2016-Jun-16 07:32N 42°23' E 018°17'  
Track history (hours):
 
Tides and Currents Weather Stations Pressure Air Temp Water Temp Dewpoint Dewpoint Depression Visibility Wind Speed Wind Dir Waves Ship Positions

Brilliance Of The Seas

Operator: Royal Caribbean Cruises Ltd

Last reported at 2016-Jun-25 23:23 UTC. Time now 2016-Jun-26 15:32 UTC.
Position N 37°52' E 025°37'.

Type: Ship. MMSI: 311361000.

Date/timePositionNaut miles runAvg speedWind from/ knotsBaromVisibWave heightAir tempDewpointWater temp
2016-Jun-25 23:23N 37°52' E 025°37'1514.1
2016-Jun-25 22:19N 37°53' E 025°18'3613.0
2016-Jun-25 19:33N 37°53' E 024°33'1616.3
2016-Jun-25 18:33N 37°44' E 024°16'1514.4
2016-Jun-25 17:30N 37°35' E 023°60'1616.4
2016-Jun-25 16:33N 37°41' E 023°41'1615.5
2016-Jun-25 15:33N 37°56' E 023°37'0 0.4
2016-Jun-25 14:32N 37°56' E 023°37'0 0.0
2016-Jun-25 13:32N 37°56' E 023°37'0 0.0
2016-Jun-25 12:32N 37°56' E 023°37'0 0.0
2016-Jun-25 11:32N 37°56' E 023°37'0 0.0
2016-Jun-25 10:32N 37°56' E 023°37'0 0.0
2016-Jun-25 09:32N 37°56' E 023°37'0 0.0
2016-Jun-25 08:32N 37°56' E 023°37'0 0.0
2016-Jun-25 07:32N 37°56' E 023°37'0 0.0
2016-Jun-25 06:31N 37°56' E 023°37'0 0.0
2016-Jun-25 05:31N 37°56' E 023°37'0 0.0
2016-Jun-25 04:31N 37°56' E 023°37'0 0.0
2016-Jun-25 03:32N 37°56' E 023°37'0 0.0
2016-Jun-25 02:32N 37°56' E 023°37'2 1.6
2016-Jun-25 01:33N 37°55' E 023°37'1312.6
2016-Jun-25 00:34N 37°43' E 023°44'1414.3
2016-Jun-24 23:34N 37°29' E 023°45'1414.4
2016-Jun-24 22:33N 37°15' E 023°43'37612.8
2016-Jun-23 17:06N 37°48' E 015°50'814.2
2016-Jun-23 16:34N 37°50' E 015°41'1312.8
2016-Jun-23 15:34N 38°02' E 015°34'1514.9
2016-Jun-23 14:33N 38°16' E 015°40'1716.6
2016-Jun-23 13:32N 38°32' E 015°33'1515.1
2016-Jun-23 12:33N 38°45' E 015°25'3014.6
2016-Jun-23 10:30N 39°10' E 015°03'259 7.8
2016-Jun-22 01:11N 41°56' E 010°42'5418.5
2016-Jun-21 22:14N 42°33' E 009°47'1622.7
2016-Jun-21 21:33N 42°48' E 009°42'2422.5
2016-Jun-21 20:30N 43°11' E 009°35'2122.6
2016-Jun-21 19:33N 43°32' E 009°33'2121.0
2016-Jun-21 18:34N 43°52' E 009°41'1514.5
2016-Jun-21 17:33N 44°05' E 009°51'2 1.7
2016-Jun-21 16:32N 44°07' E 009°50'0 0.0
2016-Jun-21 15:29N 44°07' E 009°50'0 0.0
2016-Jun-21 14:32N 44°07' E 009°50'0 0.0
2016-Jun-21 13:26N 44°07' E 009°50'0 0.0
2016-Jun-21 12:32N 44°07' E 009°50'0 0.0
2016-Jun-21 11:32N 44°07' E 009°50'0 0.0
2016-Jun-21 10:32N 44°07' E 009°50'0 0.0
2016-Jun-21 09:32N 44°07' E 009°50'0 0.0
2016-Jun-21 08:32N 44°07' E 009°50'0 0.0
2016-Jun-21 07:29N 44°07' E 009°50'0 0.0
2016-Jun-21 04:33N 44°07' E 009°50'8 7.7
2016-Jun-21 03:34N 44°00' E 009°56'1110.8
2016-Jun-21 02:33N 43°57' E 009°42'1211.9
2016-Jun-21 01:33N 43°55' E 009°25'1211.8
2016-Jun-21 00:33N 43°53' E 009°09'1212.1
2016-Jun-20 23:33N 43°50' E 008°53'1212.1
2016-Jun-20 22:33N 43°46' E 008°38'1212.0
2016-Jun-20 21:33N 43°41' E 008°22'1212.3
2016-Jun-20 20:33N 43°37' E 008°06'1212.1
2016-Jun-20 19:33N 43°33' E 007°50'1211.9
2016-Jun-20 18:34N 43°30' E 007°35'1211.7
2016-Jun-20 17:33N 43°29' E 007°19'1211.8
2016-Jun-20 16:33N 43°28' E 007°02'4 3.8
2016-Jun-20 15:33N 43°32' E 007°01'0 0.0
2016-Jun-20 14:33N 43°32' E 007°01'0 0.0
2016-Jun-20 13:33N 43°32' E 007°01'0 0.0
2016-Jun-20 12:33N 43°32' E 007°01'0 0.0
2016-Jun-20 11:33N 43°32' E 007°01'0 0.0
2016-Jun-20 10:33N 43°32' E 007°01'0 0.1
2016-Jun-20 09:33N 43°32' E 007°01'0 0.0
2016-Jun-20 08:33N 43°32' E 007°01'0 0.0
2016-Jun-20 07:33N 43°32' E 007°01'0 0.0
2016-Jun-20 06:33N 43°32' E 007°01'8 7.7
2016-Jun-20 05:29N 43°24' E 006°58'17617.1
2016-Jun-19 19:11N 41°45' E 003°40'1421.7
2016-Jun-19 18:33N 41°39' E 003°24'2221.6
2016-Jun-19 17:31N 41°29' E 002°57'2122.2
2016-Jun-19 16:33N 41°22' E 002°30'1515.1
2016-Jun-19 15:33N 41°18' E 002°10'3 2.9
2016-Jun-19 14:26N 41°21' E 002°10'0 0.0
2016-Jun-19 13:26N 41°21' E 002°10'0 0.0
2016-Jun-19 12:29N 41°21' E 002°10'0 0.0
2016-Jun-19 11:32N 41°21' E 002°10'0 0.0
2016-Jun-19 10:11N 41°21' E 002°10'0 0.0
2016-Jun-19 08:32N 41°21' E 002°10'0 0.0
2016-Jun-19 07:32N 41°21' E 002°10'0 0.0
2016-Jun-19 02:18N 41°21' E 002°10'2 2.7
2016-Jun-19 01:34N 41°19' E 002°10'1817.7
2016-Jun-19 00:33N 41°08' E 002°29'2222.3
2016-Jun-18 23:33N 40°57' E 002°55'2322.6
2016-Jun-18 22:33N 40°46' E 003°21'2922.7
2016-Jun-18 21:18N 40°32' E 003°53'24517.5
2016-Jun-18 07:20N 38°36' E 008°33'3117.5
2016-Jun-18 05:33N 38°35' E 009°13'10917.6
2016-Jun-17 23:21N 38°30' E 011°32'5918.1
2016-Jun-17 20:04N 38°27' E 012°48'1223.0
2016-Jun-17 19:33N 38°27' E 013°03'2323.0
2016-Jun-17 18:34N 38°29' E 013°32'3322.9
2016-Jun-17 17:06N 38°20' E 014°13'3622.8
2016-Jun-17 15:31N 38°20' E 014°59'2222.3
2016-Jun-17 14:33N 38°21' E 015°27'1110.9
2016-Jun-17 13:34N 38°14' E 015°38'1616.3
2016-Jun-17 12:33N 37°58' E 015°37'27818.3
2016-Jun-16 21:22N 42°00' E 018°33'1417.0
2016-Jun-16 20:34N 42°14' E 018°33'1211.9
2016-Jun-16 19:34N 42°26' E 018°35'6 6.3
2016-Jun-16 18:34N 42°29' E 018°43'3 3.2
2016-Jun-16 17:29N 42°26' E 018°46'0 0.0
2016-Jun-16 16:32N 42°26' E 018°46'0 0.0
2016-Jun-16 15:32N 42°26' E 018°46'0 0.0
2016-Jun-16 14:32N 42°26' E 018°46'0 0.0
2016-Jun-16 13:32N 42°26' E 018°46'0 0.0
2016-Jun-16 12:32N 42°26' E 018°46'0 0.0
2016-Jun-16 11:32N 42°26' E 018°46'0 0.0
2016-Jun-16 10:32N 42°26' E 018°46'4 4.4
2016-Jun-16 09:34N 42°29' E 018°41'6 6.0
2016-Jun-16 08:33N 42°26' E 018°34'1312.5
2016-Jun-16 07:32N 42°23' E 018°17'  

Dump ship's entire track history